AEA37MY LEMD-GCXO
Flight info
| Callsign | AEA37MY |
|---|---|
| Flight time | N/A |
| Altitude | 33000 |
| Route | VTB N10 CRISA/N0484F410 N10 HIJ M30 OXACA N858 OSLEP N747 MINTA DCT BAROK UN873 SAMAR |
| Aircraft | B789/H-SDE1E2E3FGHIJ2J3J4J5M1RWXY/LB1D1 |
Departure
| Time | N/A |
|---|---|
| Airport | Adolfo Suárez Madrid–Barajas Airport (LEMD) |
Arrival
| Time | 2026-04-28 19:12 |
|---|---|
| Airport | Tenerife Norte-Ciudad de La Laguna Airport (GCXO) |
| Time | Latitude | Longitude | Altitude | Speed | Heading |
|---|---|---|---|---|---|
| 2026-04-28 18:07 | 34.59628 | -11.27232 | 41008 ft | 489 kts | 217° |
| 2026-04-28 18:07 | 34.54168 | -11.32146 | 41011 ft | 488 kts | 216° |
| 2026-04-28 18:08 | 34.48695 | -11.37041 | 41013 ft | 488 kts | 216° |
| 2026-04-28 18:08 | 34.43220 | -11.41943 | 41008 ft | 488 kts | 216° |
| 2026-04-28 18:09 | 34.37751 | -11.46824 | 41010 ft | 488 kts | 216° |
| 2026-04-28 18:09 | 34.33198 | -11.50885 | 41010 ft | 488 kts | 216° |
| 2026-04-28 18:10 | 34.27718 | -11.55763 | 41011 ft | 488 kts | 216° |
| 2026-04-28 18:10 | 34.22248 | -11.60625 | 41013 ft | 488 kts | 216° |
| 2026-04-28 18:11 | 34.16764 | -11.65490 | 41009 ft | 489 kts | 216° |
| 2026-04-28 18:11 | 34.10394 | -11.71133 | 41010 ft | 489 kts | 216° |
| 2026-04-28 18:12 | 34.05802 | -11.75193 | 41011 ft | 489 kts | 216° |
| 2026-04-28 18:12 | 34.00318 | -11.80036 | 41012 ft | 489 kts | 216° |
| 2026-04-28 18:13 | 33.94833 | -11.84870 | 41015 ft | 489 kts | 216° |
| 2026-04-28 18:13 | 33.89340 | -11.89705 | 41011 ft | 489 kts | 216° |
| 2026-04-28 18:14 | 33.83888 | -11.94495 | 41011 ft | 489 kts | 216° |
| 2026-04-28 18:14 | 33.78393 | -11.99316 | 41008 ft | 489 kts | 216° |
| 2026-04-28 18:15 | 33.72895 | -12.04131 | 41011 ft | 489 kts | 216° |
| 2026-04-28 18:15 | 33.67399 | -12.08936 | 41012 ft | 489 kts | 216° |
| 2026-04-28 18:16 | 33.61894 | -12.13742 | 41013 ft | 489 kts | 216° |
| 2026-04-28 18:16 | 33.56385 | -12.18543 | 41009 ft | 489 kts | 216° |
| 2026-04-28 18:17 | 33.50916 | -12.23303 | 41010 ft | 489 kts | 216° |
| 2026-04-28 18:17 | 33.45410 | -12.28086 | 41011 ft | 489 kts | 216° |
| 2026-04-28 18:18 | 33.39893 | -12.32871 | 41011 ft | 489 kts | 216° |
| 2026-04-28 18:18 | 33.35313 | -12.36837 | 41010 ft | 489 kts | 216° |
| 2026-04-28 18:19 | 33.28871 | -12.42408 | 41012 ft | 489 kts | 216° |
| 2026-04-28 18:19 | 33.23349 | -12.47174 | 41011 ft | 489 kts | 216° |
| 2026-04-28 18:20 | 33.17837 | -12.51925 | 41015 ft | 489 kts | 216° |
| 2026-04-28 18:20 | 33.12317 | -12.56675 | 41012 ft | 489 kts | 216° |
| 2026-04-28 18:21 | 33.06831 | -12.61388 | 41010 ft | 489 kts | 216° |
| 2026-04-28 18:21 | 33.01308 | -12.66126 | 41012 ft | 489 kts | 216° |
| 2026-04-28 18:22 | 32.95780 | -12.70860 | 41010 ft | 489 kts | 216° |
| 2026-04-28 18:22 | 32.90251 | -12.75588 | 41004 ft | 489 kts | 216° |
| 2026-04-28 18:23 | 32.84717 | -12.80312 | 40994 ft | 489 kts | 216° |
| 2026-04-28 18:23 | 32.79176 | -12.85009 | 40998 ft | 484 kts | 217° |
| 2026-04-28 18:24 | 32.76472 | -12.87297 | 40987 ft | 472 kts | 217° |
| 2026-04-28 18:24 | 32.74708 | -12.88794 | 40979 ft | 468 kts | 217° |
| 2026-04-28 18:24 | 32.68537 | -12.94018 | 40984 ft | 471 kts | 217° |
| 2026-04-28 18:25 | 32.63172 | -12.98548 | 40999 ft | 473 kts | 217° |
| 2026-04-28 18:26 | 32.55137 | -13.05321 | 41006 ft | 472 kts | 217° |
| 2026-04-28 18:26 | 32.49774 | -13.09834 | 41004 ft | 472 kts | 217° |
| 2026-04-28 18:27 | 32.44449 | -13.14307 | 41004 ft | 472 kts | 217° |
| 2026-04-28 18:27 | 32.39081 | -13.18810 | 41000 ft | 473 kts | 217° |
| 2026-04-28 18:28 | 32.33716 | -13.23303 | 40992 ft | 470 kts | 217° |
| 2026-04-28 18:28 | 32.28453 | -13.27704 | 40995 ft | 458 kts | 217° |
| 2026-04-28 18:29 | 32.23270 | -13.32034 | 40999 ft | 456 kts | 217° |
| 2026-04-28 18:29 | 32.18078 | -13.36364 | 40995 ft | 457 kts | 217° |
| 2026-04-28 18:30 | 32.12888 | -13.40686 | 40996 ft | 457 kts | 217° |
| 2026-04-28 18:30 | 32.07686 | -13.45012 | 41001 ft | 457 kts | 217° |
| 2026-04-28 18:31 | 32.02474 | -13.49340 | 40997 ft | 458 kts | 217° |
| 2026-04-28 18:31 | 31.97293 | -13.53637 | 41000 ft | 458 kts | 217° |
| 2026-04-28 18:32 | 31.92062 | -13.57969 | 41000 ft | 460 kts | 217° |
| 2026-04-28 18:32 | 31.86828 | -13.62297 | 40998 ft | 460 kts | 217° |
| 2026-04-28 18:33 | 31.81583 | -13.66628 | 41000 ft | 460 kts | 217° |
| 2026-04-28 18:33 | 31.76343 | -13.70948 | 41001 ft | 459 kts | 218° |
| 2026-04-28 18:34 | 31.71118 | -13.75250 | 41002 ft | 458 kts | 218° |
| 2026-04-28 18:34 | 31.65920 | -13.79525 | 41002 ft | 459 kts | 218° |
| 2026-04-28 18:35 | 31.60677 | -13.83830 | 41010 ft | 462 kts | 218° |
| 2026-04-28 18:35 | 31.55343 | -13.88206 | 41018 ft | 473 kts | 218° |
| 2026-04-28 18:36 | 31.49905 | -13.92656 | 41033 ft | 478 kts | 218° |
| 2026-04-28 18:36 | 31.44486 | -13.97087 | 41016 ft | 478 kts | 218° |
| 2026-04-28 18:37 | 31.39040 | -14.01533 | 41014 ft | 477 kts | 218° |
| 2026-04-28 18:37 | 31.33594 | -14.05973 | 41030 ft | 477 kts | 218° |
| 2026-04-28 18:38 | 31.28145 | -14.10416 | 41025 ft | 477 kts | 218° |
| 2026-04-28 18:38 | 31.22717 | -14.14875 | 41025 ft | 476 kts | 218° |
| 2026-04-28 18:39 | 31.17281 | -14.19313 | 41018 ft | 475 kts | 218° |
| 2026-04-28 18:39 | 31.11865 | -14.23740 | 41014 ft | 476 kts | 219° |
| 2026-04-28 18:40 | 31.06429 | -14.28172 | 41011 ft | 477 kts | 219° |
| 2026-04-28 18:40 | 31.01021 | -14.32576 | 41010 ft | 477 kts | 219° |
| 2026-04-28 18:41 | 30.95583 | -14.36999 | 41011 ft | 477 kts | 219° |
| 2026-04-28 18:41 | 30.90097 | -14.41453 | 41013 ft | 478 kts | 219° |
| 2026-04-28 18:42 | 30.84641 | -14.45859 | 41009 ft | 477 kts | 219° |
| 2026-04-28 18:42 | 30.79187 | -14.50253 | 41017 ft | 477 kts | 219° |
| 2026-04-28 18:43 | 30.73729 | -14.54649 | 41018 ft | 478 kts | 219° |
| 2026-04-28 18:43 | 30.68264 | -14.59040 | 41017 ft | 477 kts | 219° |
| 2026-04-28 18:44 | 30.62807 | -14.63421 | 41015 ft | 476 kts | 219° |
| 2026-04-28 18:44 | 30.54659 | -14.69950 | 41016 ft | 477 kts | 219° |
| 2026-04-28 18:45 | 30.49163 | -14.74346 | 41022 ft | 476 kts | 219° |
| 2026-04-28 18:45 | 30.43711 | -14.78701 | 41020 ft | 476 kts | 219° |
| 2026-04-28 18:46 | 30.38264 | -14.83046 | 41021 ft | 476 kts | 219° |
| 2026-04-28 18:46 | 30.32844 | -14.87363 | 41024 ft | 475 kts | 219° |
| 2026-04-28 18:47 | 30.27399 | -14.91695 | 41021 ft | 476 kts | 219° |
| 2026-04-28 18:47 | 30.21955 | -14.96019 | 41032 ft | 471 kts | 219° |
| 2026-04-28 18:48 | 30.16563 | -15.00298 | 41025 ft | 469 kts | 219° |
| 2026-04-28 18:48 | 30.11175 | -15.04566 | 41023 ft | 470 kts | 219° |
| 2026-04-28 18:49 | 30.07572 | -15.07416 | 41045 ft | 470 kts | 219° |
| 2026-04-28 18:49 | 30.00323 | -15.13147 | 41035 ft | 475 kts | 219° |
| 2026-04-28 18:50 | 29.94874 | -15.17445 | 41026 ft | 474 kts | 219° |
| 2026-04-28 18:50 | 29.89430 | -15.21736 | 41028 ft | 473 kts | 219° |
| 2026-04-28 18:51 | 29.84029 | -15.25985 | 41029 ft | 472 kts | 220° |
| 2026-04-28 18:51 | 29.78606 | -15.30248 | 41028 ft | 472 kts | 220° |
| 2026-04-28 18:52 | 29.73173 | -15.34512 | 41028 ft | 472 kts | 220° |
| 2026-04-28 18:52 | 29.70475 | -15.36625 | 40702 ft | 468 kts | 220° |
| 2026-04-28 18:52 | 29.67768 | -15.38747 | 39890 ft | 473 kts | 220° |
| 2026-04-28 18:53 | 29.65058 | -15.40871 | 39291 ft | 472 kts | 220° |
| 2026-04-28 18:53 | 29.62345 | -15.42993 | 38640 ft | 472 kts | 220° |
| 2026-04-28 18:53 | 29.59638 | -15.45108 | 37967 ft | 470 kts | 220° |
| 2026-04-28 18:53 | 29.56937 | -15.47219 | 37298 ft | 468 kts | 220° |
| 2026-04-28 18:54 | 29.54248 | -15.49320 | 36618 ft | 468 kts | 220° |
| 2026-04-28 18:54 | 29.51556 | -15.51423 | 35931 ft | 470 kts | 220° |
| 2026-04-28 18:54 | 29.48833 | -15.53548 | 35198 ft | 475 kts | 220° |
| 2026-04-28 18:54 | 29.46091 | -15.55686 | 34446 ft | 480 kts | 220° |
| 2026-04-28 18:55 | 29.43312 | -15.57849 | 33607 ft | 484 kts | 220° |
| 2026-04-28 18:55 | 29.41469 | -15.59283 | 33080 ft | 484 kts | 220° |
| 2026-04-28 18:55 | 29.38680 | -15.61452 | 32234 ft | 485 kts | 219° |
| 2026-04-28 18:55 | 29.35888 | -15.63623 | 31353 ft | 487 kts | 219° |
| 2026-04-28 18:56 | 29.33084 | -15.65803 | 30444 ft | 488 kts | 219° |
| 2026-04-28 18:56 | 29.30274 | -15.67982 | 29514 ft | 486 kts | 219° |
| 2026-04-28 18:56 | 29.27484 | -15.70144 | 28635 ft | 482 kts | 218° |
| 2026-04-28 18:56 | 29.24723 | -15.72284 | 27778 ft | 478 kts | 218° |
| 2026-04-28 18:57 | 29.21978 | -15.74413 | 26931 ft | 474 kts | 218° |
| 2026-04-28 18:57 | 29.19282 | -15.76499 | 26098 ft | 462 kts | 218° |
| 2026-04-28 18:57 | 29.16629 | -15.78551 | 25278 ft | 459 kts | 217° |
| 2026-04-28 18:57 | 29.13987 | -15.80579 | 24277 ft | 459 kts | 214° |
| 2026-04-28 18:58 | 29.11080 | -15.82189 | 22888 ft | 470 kts | 202° |
| 2026-04-28 18:58 | 29.08003 | -15.83423 | 21406 ft | 456 kts | 201° |
| 2026-04-28 18:58 | 29.05104 | -15.84551 | 20089 ft | 428 kts | 200° |
| 2026-04-28 18:58 | 29.02385 | -15.85592 | 19132 ft | 398 kts | 201° |
| 2026-04-28 18:59 | 28.99845 | -15.86584 | 18155 ft | 375 kts | 201° |
| 2026-04-28 18:59 | 28.97446 | -15.87531 | 17077 ft | 356 kts | 201° |
| 2026-04-28 18:59 | 28.95150 | -15.88429 | 16043 ft | 342 kts | 201° |
| 2026-04-28 18:59 | 28.92940 | -15.89286 | 15045 ft | 330 kts | 201° |
| 2026-04-28 19:00 | 28.90801 | -15.90119 | 14076 ft | 320 kts | 201° |
| 2026-04-28 19:00 | 28.88727 | -15.90929 | 13052 ft | 311 kts | 201° |
| 2026-04-28 19:00 | 28.86672 | -15.91732 | 12443 ft | 308 kts | 201° |
| 2026-04-28 19:00 | 28.84677 | -15.92508 | 12179 ft | 306 kts | 201° |
| 2026-04-28 19:01 | 28.82663 | -15.93292 | 11681 ft | 306 kts | 200° |
| 2026-04-28 19:01 | 28.80652 | -15.94073 | 11191 ft | 304 kts | 200° |
| 2026-04-28 19:01 | 28.78655 | -15.94850 | 10804 ft | 299 kts | 200° |
| 2026-04-28 19:01 | 28.76714 | -15.95604 | 10480 ft | 293 kts | 200° |
| 2026-04-28 19:02 | 28.74809 | -15.96344 | 10432 ft | 290 kts | 200° |
| 2026-04-28 19:02 | 28.72885 | -15.97090 | 10233 ft | 290 kts | 200° |
| 2026-04-28 19:02 | 28.70995 | -15.97823 | 9951 ft | 288 kts | 200° |
| 2026-04-28 19:02 | 28.69127 | -15.98549 | 9642 ft | 285 kts | 200° |
| 2026-04-28 19:03 | 28.67256 | -15.99273 | 9341 ft | 276 kts | 200° |
| 2026-04-28 19:03 | 28.65484 | -15.99960 | 9057 ft | 268 kts | 200° |
| 2026-04-28 19:03 | 28.63738 | -16.00638 | 8772 ft | 265 kts | 200° |
| 2026-04-28 19:03 | 28.61961 | -16.01328 | 8499 ft | 267 kts | 200° |
| 2026-04-28 19:04 | 28.60222 | -16.02001 | 8234 ft | 262 kts | 200° |
| 2026-04-28 19:04 | 28.58521 | -16.02658 | 7984 ft | 252 kts | 200° |
| 2026-04-28 19:04 | 28.56893 | -16.03288 | 7688 ft | 248 kts | 200° |
| 2026-04-28 19:04 | 28.55271 | -16.03917 | 7456 ft | 242 kts | 200° |
| 2026-04-28 19:05 | 28.53691 | -16.04528 | 7176 ft | 239 kts | 200° |
| 2026-04-28 19:05 | 28.52135 | -16.05131 | 6896 ft | 239 kts | 200° |
| 2026-04-28 19:05 | 28.50554 | -16.05741 | 6702 ft | 242 kts | 200° |
| 2026-04-28 19:05 | 28.48969 | -16.06353 | 6595 ft | 236 kts | 200° |
| 2026-04-28 19:06 | 28.47395 | -16.06962 | 6470 ft | 241 kts | 200° |
| 2026-04-28 19:06 | 28.46358 | -16.07446 | 6352 ft | 235 kts | 206° |
| 2026-04-28 19:06 | 28.44326 | -16.08305 | 6125 ft | 231 kts | 199° |
| 2026-04-28 19:06 | 28.42839 | -16.08889 | 5981 ft | 226 kts | 201° |
| 2026-04-28 19:07 | 28.41563 | -16.09876 | 5803 ft | 224 kts | 235° |
| 2026-04-28 19:07 | 28.41010 | -16.11474 | 5673 ft | 217 kts | 270° |
| 2026-04-28 19:07 | 28.41323 | -16.13127 | 5521 ft | 213 kts | 291° |
| 2026-04-28 19:07 | 28.41831 | -16.14728 | 5305 ft | 217 kts | 292° |
| 2026-04-28 19:08 | 28.42352 | -16.16312 | 5033 ft | 211 kts | 293° |
| 2026-04-28 19:08 | 28.42860 | -16.17851 | 4758 ft | 206 kts | 293° |
| 2026-04-28 19:08 | 28.43356 | -16.19352 | 4479 ft | 200 kts | 293° |
| 2026-04-28 19:08 | 28.43838 | -16.20808 | 4209 ft | 194 kts | 293° |
| 2026-04-28 19:09 | 28.44311 | -16.22229 | 3950 ft | 190 kts | 293° |
| 2026-04-28 19:09 | 28.44768 | -16.23610 | 3715 ft | 178 kts | 292° |
| 2026-04-28 19:09 | 28.45175 | -16.24840 | 3475 ft | 157 kts | 294° |
| 2026-04-28 19:09 | 28.45553 | -16.25967 | 3272 ft | 151 kts | 293° |
| 2026-04-28 19:10 | 28.45920 | -16.27079 | 3069 ft | 149 kts | 293° |
| 2026-04-28 19:10 | 28.46284 | -16.28180 | 2879 ft | 148 kts | 293° |
| 2026-04-28 19:10 | 28.46650 | -16.29284 | 2684 ft | 149 kts | 293° |
| 2026-04-28 19:10 | 28.47016 | -16.30386 | 2485 ft | 150 kts | 292° |
| 2026-04-28 19:11 | 28.47380 | -16.31482 | 2281 ft | 145 kts | 291° |
| 2026-04-28 19:11 | 28.47714 | -16.32491 | 2079 ft | 147 kts | 291° |
| 2026-04-28 19:11 | 28.48035 | -16.33458 | 2041 ft | 109 kts | 290° |
| 2026-04-28 19:11 | 28.48260 | -16.34134 | 2052 ft | 75 kts | 291° |
| 2026-04-28 19:12 | 28.48415 | -16.34597 | 2056 ft | 51 kts | 291° |
| 2026-04-28 19:12 | 28.48519 | -16.34909 | 2063 ft | 36 kts | 290° |
| 2026-04-28 19:12 | 28.48601 | -16.35146 | 2068 ft | 29 kts | 296° |
| 2026-04-28 19:12 | 28.48673 | -16.35266 | 2070 ft | 10 kts | 306° |
| 2026-04-28 19:13 | 28.48706 | -16.35312 | 2071 ft | 1 kts | 330° |
| 2026-04-28 19:13 | 28.48729 | -16.35322 | 2071 ft | 3 kts | 353° |
| 2026-04-28 19:13 | 28.48743 | -16.35310 | 2071 ft | 3 kts | 59° |
| 2026-04-28 19:13 | 28.48741 | -16.35238 | 2069 ft | 13 kts | 107° |
| 2026-04-28 19:14 | 28.48709 | -16.35140 | 2067 ft | 13 kts | 110° |
| 2026-04-28 19:14 | 28.48674 | -16.35033 | 2065 ft | 15 kts | 110° |
| 2026-04-28 19:14 | 28.48657 | -16.34962 | 2064 ft | 8 kts | 84° |
| 2026-04-28 19:14 | 28.48686 | -16.34898 | 2063 ft | 10 kts | 56° |
| 2026-04-28 19:15 | 28.48711 | -16.34854 | 2062 ft | 4 kts | 56° |
| 2026-04-28 19:15 | 28.48721 | -16.34836 | 2062 ft | 0 kts | 58° |